Observation data for Abernathy on 03/09/2018      Previous  Date  Next       Current Mesonet Observations  Soil Data  Daily Summary Page  Observations in Plain Language
KARS 090600Z 20012KT 10/M04 A299 RMK A01 T01021042  RH  036%=      5-min Rain = 0
KARS 090605Z 20013KT 10/M04 A299 RMK A01 T01031041  RH  036%=      5-min Rain = 0
KARS 090610Z 19013KT 10/M04 A299 RMK A01 T01041039  RH  036%=      5-min Rain = 0
KARS 090615Z 19013KT 11/M04 A2989 RMK A01 T01051039  RH  036%=      5-min Rain = 0
KARS 090620Z 19013KT 10/M04 A2989 RMK A01 T01041038  RH  037%=      5-min Rain = 0
KARS 090625Z 20013KT 10/M04 A2989 RMK A01 T01041036  RH  037%=      5-min Rain = 0
KARS 090630Z 20013KT 10/M04 A2989 RMK A01 T01041035  RH  038%=      5-min Rain = 0
KARS 090635Z 20013KT 10/M03 A2989 RMK A01 T01041034  RH  038%=      5-min Rain = 0
KARS 090640Z 20013KT 10/M03 A2989 RMK A01 T01041033  RH  038%=      5-min Rain = 0
KARS 090645Z 20013KT 10/M03 A2989 RMK A01 T01031033  RH  039%=      5-min Rain = 0
KARS 090650Z 20013KT 10/M03 A2989 RMK A01 T01031032  RH  039%=      5-min Rain = 0
KARS 090655Z 20013KT 10/M03 A2989 RMK A01 T01011031  RH  039%=      5-min Rain = 0
KARS 090700Z 20013KT 10/M03 A2989 RMK A01 T01011030  RH  040%=      5-min Rain = 0
KARS 090705Z 20013KT 10/M03 A2989 RMK A01 T01011029  RH  040%=      5-min Rain = 0
KARS 090710Z 20013KT 10/M03 A2989 RMK A01 T01011028  RH  041%=      5-min Rain = 0
KARS 090715Z 21013KT 10/M03 A2989 RMK A01 T01011027  RH  041%=      5-min Rain = 0
KARS 090720Z 21015KT 10/M03 A2989 RMK A01 T01021025  RH  041%=      5-min Rain = 0
KARS 090725Z 21015KT 10/M02 A2989 RMK A01 T01031023  RH  041%=      5-min Rain = 0
KARS 090730Z 21014G19KT 10/M02 A2989 RMK A01 T01021022  RH  042%=      5-min Rain = 0
KARS 090735Z 21014KT 10/M02 A2989 RMK A01 T01011022  RH  042%=      5-min Rain = 0
KARS 090740Z 21013KT 10/M02 A2989 RMK A01 T01001022  RH  043%=      5-min Rain = 0
KARS 090745Z 21014KT 10/M02 A2989 RMK A01 T00981022  RH  043%=      5-min Rain = 0
KARS 090750Z 22014KT 10/M02 A2989 RMK A01 T00981021  RH  043%=      5-min Rain = 0
KARS 090755Z 21014KT 10/M02 A2988 RMK A01 T00971022  RH  044%=      5-min Rain = 0
KARS 090800Z 21013KT 10/M02 A2988 RMK A01 T00951022  RH  044%=      5-min Rain = 0
KARS 090805Z 22014KT 09/M02 A2988 RMK A01 T00941022  RH  044%=      5-min Rain = 0
KARS 090810Z 22013KT 09/M02 A2988 RMK A01 T00921022  RH  045%=      5-min Rain = 0
KARS 090815Z 22012KT 09/M02 A2988 RMK A01 T00911023  RH  045%=      5-min Rain = 0
KARS 090820Z 22012KT 09/M02 A2988 RMK A01 T00901023  RH  046%=      5-min Rain = 0
KARS 090825Z 22012KT 09/M02 A2987 RMK A01 T00871024  RH  046%=      5-min Rain = 0
KARS 090830Z 22011KT 09/M03 A2987 RMK A01 T00851025  RH  046%=      5-min Rain = 0
KARS 090835Z 22011KT 08/M03 A2987 RMK A01 T00821025  RH  047%=      5-min Rain = 0
KARS 090840Z 22011KT 08/M03 A2987 RMK A01 T00791025  RH  048%=      5-min Rain = 0
KARS 090845Z 22011KT 08/M03 A2987 RMK A01 T00781025  RH  048%=      5-min Rain = 0
KARS 090850Z 22011KT 08/M03 A2987 RMK A01 T00761027  RH  048%=      5-min Rain = 0
KARS 090855Z 22011KT 07/M03 A2986 RMK A01 T00741027  RH  049%=      5-min Rain = 0
KARS 090900Z 22012KT 07/M03 A2986 RMK A01 T00731027  RH  050%=      5-min Rain = 0
KARS 090905Z 22012KT 07/M03 A2986 RMK A01 T00721027  RH  050%=      5-min Rain = 0
KARS 090910Z 22012KT 07/M03 A2986 RMK A01 T00711027  RH  050%=      5-min Rain = 0
KARS 090915Z 23011KT 07/M03 A2986 RMK A01 T00701027  RH  050%=      5-min Rain = 0
KARS 090920Z 22011KT 07/M03 A2986 RMK A01 T00691028  RH  051%=      5-min Rain = 0
KARS 090925Z 22011KT 07/M03 A2985 RMK A01 T00661028  RH  051%=      5-min Rain = 0
KARS 090930Z 22011KT 06/M03 A2985 RMK A01 T00631029  RH  052%=      5-min Rain = 0
KARS 090935Z 22011KT 06/M03 A2985 RMK A01 T00601029  RH  053%=      5-min Rain = 0
KARS 090940Z 22010KT 06/M03 A2985 RMK A01 T00571029  RH  054%=      5-min Rain = 0
KARS 090945Z 22010KT 06/M03 A2985 RMK A01 T00561029  RH  055%=      5-min Rain = 0
KARS 090950Z 22010KT 05/M03 A2985 RMK A01 T00541030  RH  055%=      5-min Rain = 0
KARS 090955Z 22010KT 05/M03 A2985 RMK A01 T00511030  RH  056%=      5-min Rain = 0
KARS 091000Z 22010KT 05/M03 A2985 RMK A01 T00491031  RH  057%=      5-min Rain = 0
KARS 091005Z 22010KT 05/M03 A2985 RMK A01 T00461031  RH  058%=      5-min Rain = 0
KARS 091010Z 22010KT 05/M03 A2985 RMK A01 T00461031  RH  058%=      5-min Rain = 0
KARS 091015Z 22011KT 05/M03 A2985 RMK A01 T00461031  RH  058%=      5-min Rain = 0
KARS 091020Z 22011KT 05/M03 A2985 RMK A01 T00471030  RH  058%=      5-min Rain = 0
KARS 091025Z 22011KT 05/M03 A2985 RMK A01 T00471030  RH  058%=      5-min Rain = 0
KARS 091030Z 23011KT 05/M03 A2984 RMK A01 T00461031  RH  058%=      5-min Rain = 0
KARS 091035Z 23010KT 05/M03 A2984 RMK A01 T00451031  RH  058%=      5-min Rain = 0
KARS 091040Z 23010KT 04/M03 A2984 RMK A01 T00441032  RH  058%=      5-min Rain = 0
KARS 091045Z 23010KT 04/M03 A2984 RMK A01 T00441033  RH  058%=      5-min Rain = 0
KARS 091050Z 23010KT 04/M03 A2984 RMK A01 T00431033  RH  058%=      5-min Rain = 0
KARS 091055Z 23010KT 04/M03 A2984 RMK A01 T00431033  RH  058%=      5-min Rain = 0
KARS 091100Z 23010KT 04/M03 A2984 RMK A01 T00421032  RH  059%=      5-min Rain = 0
KARS 091105Z 23010KT 04/M03 A2984 RMK A01 T00431030  RH  059%=      5-min Rain = 0
KARS 091110Z 23009KT 05/M03 A2984 RMK A01 T00451030  RH  059%=      5-min Rain = 0
KARS 091115Z 23009KT 04/M03 A2984 RMK A01 T00431031  RH  059%=      5-min Rain = 0
KARS 091120Z 23009KT 04/M03 A2984 RMK A01 T00401032  RH  060%=      5-min Rain = 0
KARS 091125Z 23009KT 04/M03 A2984 RMK A01 T00381033  RH  060%=      5-min Rain = 0
KARS 091130Z 22009KT 04/M03 A2984 RMK A01 T00351034  RH  061%=      5-min Rain = 0
KARS 091135Z 22010KT 03/M03 A2984 RMK A01 T00331033  RH  062%=      5-min Rain = 0
KARS 091140Z 22010KT 03/M03 A2984 RMK A01 T00321033  RH  062%=      5-min Rain = 0
KARS 091145Z 22009KT 03/M03 A2984 RMK A01 T00321033  RH  063%=      5-min Rain = 0
KARS 091150Z 22009KT 03/M03 A2984 RMK A01 T00301034  RH  063%=      5-min Rain = 0
KARS 091155Z 22008KT 03/M03 A2984 RMK A01 T00271034  RH  064%=      5-min Rain = 0
KARS 091200Z 22008KT 03/M03 A2984 RMK A01 T00271033  RH  065%=      5-min Rain = 0
KARS 091205Z 23009KT 03/M03 A2984 RMK A01 T00271034  RH  064%=      5-min Rain = 0
KARS 091210Z 23008KT 03/M03 A2984 RMK A01 T00261034  RH  065%=      5-min Rain = 0
KARS 091215Z 22009KT 03/M03 A2984 RMK A01 T00251034  RH  065%=      5-min Rain = 0
KARS 091220Z 22009KT 02/M03 A2984 RMK A01 T00241034  RH  066%=      5-min Rain = 0
KARS 091225Z 23008KT 02/M04 A2984 RMK A01 T00231035  RH  066%=      5-min Rain = 0
KARS 091230Z 23008KT 02/M04 A2984 RMK A01 T00221035  RH  066%=      5-min Rain = 0
KARS 091235Z 22007KT 02/M04 A2984 RMK A01 T00211036  RH  066%=      5-min Rain = 0
KARS 091240Z 23007KT 02/M04 A2984 RMK A01 T00191036  RH  067%=      5-min Rain = 0
KARS 091245Z 23006KT 02/M04 A2984 RMK A01 T00181036  RH  067%=      5-min Rain = 0
KARS 091250Z 23006KT 02/M04 A2984 RMK A01 T00181036  RH  067%=      5-min Rain = 0
KARS 091255Z 23006KT 02/M04 A2984 RMK A01 T00191036  RH  067%=      5-min Rain = 0
KARS 091300Z 23006KT 02/M04 A2985 RMK A01 T00181036  RH  067%=      5-min Rain = 0
KARS 091305Z 22006KT 02/M04 A2985 RMK A01 T00151038  RH  068%=      5-min Rain = 0
KARS 091310Z 22007KT 01/M04 A2985 RMK A01 T00131037  RH  070%=      5-min Rain = 0
KARS 091315Z 22007KT 02/M04 A2985 RMK A01 T00151035  RH  070%=      5-min Rain = 0
KARS 091320Z 22008KT 02/M04 A2985 RMK A01 T00171035  RH  069%=      5-min Rain = 0
KARS 091325Z 23008KT 02/M04 A2985 RMK A01 T00191035  RH  068%=      5-min Rain = 0
KARS 091330Z 23008KT 02/M03 A2985 RMK A01 T00211034  RH  067%=      5-min Rain = 0
KARS 091335Z 23007KT 03/M03 A2985 RMK A01 T00251032  RH  067%=      5-min Rain = 0
KARS 091340Z 23006KT 03/M03 A2985 RMK A01 T00271031  RH  066%=      5-min Rain = 0
KARS 091345Z 23006KT 03/M03 A2985 RMK A01 T00301030  RH  065%=      5-min Rain = 0
KARS 091350Z 23007KT 03/M03 A2985 RMK A01 T00341028  RH  064%=      5-min Rain = 0
KARS 091355Z 23007KT 04/M03 A2985 RMK A01 T00381026  RH  063%=      5-min Rain = 0
KARS 091400Z 24006KT 04/M02 A2985 RMK A01 T00431024  RH  062%=      5-min Rain = 0
KARS 091405Z 25006KT 05/M02 A2985 RMK A01 T00471022  RH  061%=      5-min Rain = 0
KARS 091410Z 26006KT 05/M02 A2985 RMK A01 T00511020  RH  061%=      5-min Rain = 0
KARS 091415Z 28003KT 06/M02 A2986 RMK A01 T00561017  RH  060%=      5-min Rain = 0
KARS 091420Z 30003KT 06/M02 A2986 RMK A01 T00621017  RH  058%=      5-min Rain = 0
KARS 091425Z 27006KT 07/M02 A2986 RMK A01 T00661019  RH  055%=      5-min Rain = 0
KARS 091430Z 26008KT 07/M02 A2986 RMK A01 T00671021  RH  054%=      5-min Rain = 0
KARS 091435Z 28007KT 07/M02 A2986 RMK A01 T00691022  RH  053%=      5-min Rain = 0
KARS 091440Z 30008KT 07/M03 A2986 RMK A01 T00711027  RH  050%=      5-min Rain = 0
KARS 091445Z 29008KT 07/M03 A2986 RMK A01 T00701028  RH  050%=      5-min Rain = 0
KARS 091450Z 28007KT 07/M03 A2986 RMK A01 T00701028  RH  050%=      5-min Rain = 0
KARS 091455Z 28006KT 07/M03 A2986 RMK A01 T00731028  RH  049%=      5-min Rain = 0
KARS 091500Z 27008KT 08/M03 A2986 RMK A01 T00771033  RH  046%=      5-min Rain = 0
KARS 091505Z 28007KT 08/M03 A2986 RMK A01 T00821034  RH  044%=      5-min Rain = 0
KARS 091510Z 28007KT 09/M04 A2986 RMK A01 T00861035  RH  043%=      5-min Rain = 0
KARS 091515Z 28006KT 09/M04 A2986 RMK A01 T00891035  RH  042%=      5-min Rain = 0
KARS 091520Z 28006KT 09/M04 A2986 RMK A01 T00931038  RH  040%=      5-min Rain = 0
KARS 091525Z 29006KT 10/M04 A2986 RMK A01 T00981041  RH  037%=      5-min Rain = 0
KARS 091530Z 29006KT 10/M04 A2986 RMK A01 T01011043  RH  036%=      5-min Rain = 0
KARS 091535Z 29007KT 11/M04 A2986 RMK A01 T01051044  RH  035%=      5-min Rain = 0
KARS 091540Z 30006KT 11/M04 A2986 RMK A01 T01101044  RH  034%=      5-min Rain = 0
KARS 091545Z 30009KT 12/M05 A2986 RMK A01 T01151051  RH  031%=      5-min Rain = 0
KARS 091550Z 31009KT 12/M05 A2986 RMK A01 T01161050  RH  031%=      5-min Rain = 0
KARS 091555Z 30008KT 12/M05 A2986 RMK A01 T01211049  RH  030%=      5-min Rain = 0
KARS 091600Z 29008KT 12/M05 A2986 RMK A01 T01231050  RH  030%=      5-min Rain = 0
KARS 091605Z 29007KT 13/M05 A2986 RMK A01 T01271050  RH  029%=      5-min Rain = 0
KARS 091610Z 28009KT 13/M05 A2985 RMK A01 T01321053  RH  027%=      5-min Rain = 0
KARS 091615Z 28009KT 14/M06 A2985 RMK A01 T01421055  RH  025%=      5-min Rain = 0
KARS 091620Z 28010KT 15/M06 A2985 RMK A01 T01491056  RH  024%=      5-min Rain = 0
KARS 091625Z 28009KT 16/M06 A2985 RMK A01 T01551058  RH  023%=      5-min Rain = 0
KARS 091630Z 28010KT 16/M06 A2985 RMK A01 T01601063  RH  021%=      5-min Rain = 0
KARS 091635Z 29010KT 16/M07 A2985 RMK A01 T01631065  RH  020%=      5-min Rain = 0
KARS 091640Z 29010KT 17/M07 A2985 RMK A01 T01691066  RH  019%=      5-min Rain = 0
KARS 091645Z 28011KT 17/M07 A2985 RMK A01 T01731066  RH  019%=      5-min Rain = 0
KARS 091650Z 27010KT 18/M07 A2985 RMK A01 T01751067  RH  019%=      5-min Rain = 0
KARS 091655Z 28010KT 18/M07 A2985 RMK A01 T01821072  RH  017%=      5-min Rain = 0
KARS 091700Z 28010KT 19/M07 A2985 RMK A01 T01881071  RH  017%=      5-min Rain = 0
KARS 091705Z 28010KT 19/M08 A2985 RMK A01 T01921075  RH  016%=      5-min Rain = 0
KARS 091710Z 28009KT 20/M08 A2985 RMK A01 T01951075  RH  015%=      5-min Rain = 0
KARS 091715Z 27008KT 20/M07 A2985 RMK A01 T01961073  RH  016%=      5-min Rain = 0
KARS 091720Z 28009KT 20/M08 A2985 RMK A01 T01961076  RH  015%=      5-min Rain = 0
KARS 091725Z 26009G14KT 20/M08 A2985 RMK A01 T01991079  RH  014%=      5-min Rain = 0
KARS 091730Z 29008KT 20/M08 A2984 RMK A01 T02041081  RH  014%=      5-min Rain = 0
KARS 091735Z 30010KT 21/M08 A2984 RMK A01 T02071084  RH  013%=      5-min Rain = 0
KARS 091740Z 28009G14KT 21/M09 A2984 RMK A01 T02091085  RH  013%=      5-min Rain = 0
KARS 091745Z 27010KT 21/M08 A2984 RMK A01 T02101083  RH  013%=      5-min Rain = 0
KARS 091750Z 29007KT 21/M08 A2984 RMK A01 T02101082  RH  013%=      5-min Rain = 0
KARS 091755Z 29007KT 21/M08 A2984 RMK A01 T02141083  RH  013%=      5-min Rain = 0
KARS 091800Z 28008KT 22/M09 A2983 RMK A01 T02171086  RH  012%=      5-min Rain = 0
KARS 091805Z 30008G13KT 22/M09 A2983 RMK A01 T02181088  RH  012%=      5-min Rain = 0
KARS 091810Z 30010KT 22/M09 A2983 RMK A01 T02191090  RH  012%=      5-min Rain = 0
KARS 091815Z 30008KT 22/M09 A2983 RMK A01 T02241092  RH  011%=      5-min Rain = 0
KARS 091820Z 28009KT 22/M10 A2983 RMK A01 T02211097  RH  011%=      5-min Rain = 0
KARS 091825Z 27008G14KT 22/M10 A2982 RMK A01 T02211099  RH  011%=      5-min Rain = 0
KARS 091830Z 30006G12KT 22/M10 A2982 RMK A01 T02231097  RH  011%=      5-min Rain = 0
KARS 091835Z 30007G12KT 23/M10 A2982 RMK A01 T02251099  RH  011%=      5-min Rain = 0
KARS 091840Z 29007G13KT 23/M10 A2982 RMK A01 T02271102  RH  010%=      5-min Rain = 0
KARS 091845Z 26009KT 23/M10 A2981 RMK A01 T02301099  RH  010%=      5-min Rain = 0
KARS 091850Z 26005KT 23/M10 A2981 RMK A01 T02271101  RH  010%=      5-min Rain = 0
KARS 091855Z 26006KT 23/M10 A2981 RMK A01 T02271100  RH  010%=      5-min Rain = 0
KARS 091900Z 29007KT 23/M10 A2981 RMK A01 T02301100  RH  010%=      5-min Rain = 0
KARS 091905Z 23006G11KT 23/M10 A2981 RMK A01 T02311100  RH  010%=      5-min Rain = 0
KARS 091910Z 24004KT 23/M10 A298 RMK A01 T02311099  RH  010%=      5-min Rain = 0
KARS 091915Z 18002KT 24/M10 A298 RMK A01 T02371098  RH  010%=      5-min Rain = 0
KARS 091920Z 21005KT 24/M10 A298 RMK A01 T02411098  RH  010%=      5-min Rain = 0
KARS 091925Z 20004KT 23/M10 A298 RMK A01 T02341101  RH  010%=      5-min Rain = 0
KARS 091930Z 27002KT 24/M10 A2979 RMK A01 T02351102  RH  010%=      5-min Rain = 0
KARS 091935Z 22006KT 24/M10 A2979 RMK A01 T02371102  RH  010%=      5-min Rain = 0
KARS 091940Z 21004KT 24/M10 A2979 RMK A01 T02361102  RH  010%=      5-min Rain = 0
KARS 091945Z 19007KT 24/M10 A2979 RMK A01 T02381103  RH  009%=      5-min Rain = 0
KARS 091950Z 18007KT 24/M10 A2979 RMK A01 T02361104  RH  010%=      5-min Rain = 0
KARS 091955Z 16005KT 24/M11 A2979 RMK A01 T02381105  RH  009%=      5-min Rain = 0
KARS 092000Z 21005KT 24/M10 A2978 RMK A01 T02401103  RH  009%=      5-min Rain = 0
KARS 092005Z 24005KT 24/M11 A2978 RMK A01 T02411105  RH  009%=      5-min Rain = 0
KARS 092010Z 22004KT 24/M10 A2978 RMK A01 T02421104  RH  009%=      5-min Rain = 0
KARS 092015Z 19005KT 24/M11 A2978 RMK A01 T02431105  RH  009%=      5-min Rain = 0
KARS 092020Z 18004G9KT 25/M10 A2977 RMK A01 T02481103  RH  009%=      5-min Rain = 0
KARS 092025Z 20005KT 24/M11 A2977 RMK A01 T02431107  RH  009%=      5-min Rain = 0
KARS 092030Z 19006KT 24/M11 A2977 RMK A01 T02391106  RH  009%=      5-min Rain = 0
KARS 092035Z 19007KT 24/M11 A2977 RMK A01 T02411106  RH  009%=      5-min Rain = 0
KARS 092040Z 16007KT 24/M11 A2977 RMK A01 T02431105  RH  009%=      5-min Rain = 0
KARS 092045Z 15007KT 24/M11 A2977 RMK A01 T02431106  RH  009%=      5-min Rain = 0
KARS 092050Z 15007KT 24/M11 A2977 RMK A01 T02431107  RH  009%=      5-min Rain = 0
KARS 092055Z 14006KT 24/M11 A2977 RMK A01 T02411109  RH  009%=      5-min Rain = 0
KARS 092100Z 16006KT 24/M11 A2977 RMK A01 T02431109  RH  009%=      5-min Rain = 0
KARS 092105Z 16005KT 24/M11 A2977 RMK A01 T02431110  RH  009%=      5-min Rain = 0
KARS 092110Z 15004KT 24/M11 A2977 RMK A01 T02421111  RH  009%=      5-min Rain = 0
KARS 092115Z 19004KT 24/M11 A2977 RMK A01 T02411113  RH  009%=      5-min Rain = 0
KARS 092120Z 20002KT 24/M11 A2977 RMK A01 T02421110  RH  009%=      5-min Rain = 0
KARS 092125Z 24005KT 25/M11 A2976 RMK A01 T02451111  RH  008%=      5-min Rain = 0
KARS 092130Z 26004KT 24/M11 A2976 RMK A01 T02441111  RH  009%=      5-min Rain = 0
KARS 092135Z 26005KT 24/M11 A2977 RMK A01 T02431112  RH  009%=      5-min Rain = 0
KARS 092140Z 28003KT 24/M11 A2977 RMK A01 T02411111  RH  009%=      5-min Rain = 0
KARS 092145Z 34005KT 24/M11 A2977 RMK A01 T02441111  RH  009%=      5-min Rain = 0
KARS 092150Z 34006KT 24/M11 A2977 RMK A01 T02441111  RH  009%=      5-min Rain = 0
KARS 092155Z 33003KT 24/M11 A2977 RMK A01 T02441112  RH  009%=      5-min Rain = 0
KARS 092200Z 34004KT 24/M11 A2977 RMK A01 T02431114  RH  008%=      5-min Rain = 0
KARS 092205Z 35003KT 24/M12 A2977 RMK A01 T02401120  RH  008%=      5-min Rain = 0
KARS 092210Z 00004KT 24/M12 A2977 RMK A01 T02401116  RH  008%=      5-min Rain = 0
KARS 092215Z 03007KT 24/M12 A2976 RMK A01 T02411119  RH  008%=      5-min Rain = 0
KARS 092220Z 04007KT 24/M12 A2976 RMK A01 T02411119  RH  008%=      5-min Rain = 0
KARS 092225Z 03005KT 24/M12 A2976 RMK A01 T02411120  RH  008%=      5-min Rain = 0
KARS 092230Z 05002KT 24/M12 A2976 RMK A01 T02401122  RH  008%=      5-min Rain = 0
KARS 092235Z 05004KT 24/M12 A2976 RMK A01 T02391119  RH  008%=      5-min Rain = 0
KARS 092240Z 04002KT 24/M12 A2976 RMK A01 T02381117  RH  008%=      5-min Rain = 0
KARS 092245Z 04005KT 24/M12 A2976 RMK A01 T02381119  RH  008%=      5-min Rain = 0
KARS 092250Z 01005KT 24/M12 A2976 RMK A01 T02381119  RH  008%=      5-min Rain = 0
KARS 092255Z 01005KT 24/M12 A2976 RMK A01 T02371120  RH  008%=      5-min Rain = 0
KARS 092300Z 01004KT 24/M12 A2976 RMK A01 T02361123  RH  008%=      5-min Rain = 0
KARS 092305Z 00004KT 24/M12 A2975 RMK A01 T02351122  RH  008%=      5-min Rain = 0
KARS 092310Z 01004KT 24/M12 A2976 RMK A01 T02351122  RH  008%=      5-min Rain = 0
KARS 092315Z 01008KT 23/M12 A2976 RMK A01 T02341117  RH  009%=      5-min Rain = 0
KARS 092320Z 01009KT 23/M11 A2976 RMK A01 T02311109  RH  009%=      5-min Rain = 0
KARS 092325Z 01008KT 23/M11 A2976 RMK A01 T02281110  RH  009%=      5-min Rain = 0
KARS 092330Z 02007G14KT 23/M11 A2975 RMK A01 T02271107  RH  010%=      5-min Rain = 0
KARS 092335Z 03008KT 23/M11 A2975 RMK A01 T02261107  RH  010%=      5-min Rain = 0
KARS 092340Z 03008KT 23/M11 A2975 RMK A01 T02251108  RH  010%=      5-min Rain = 0
KARS 092345Z 02008KT 22/M11 A2976 RMK A01 T02231109  RH  010%=      5-min Rain = 0
KARS 092350Z 02008KT 22/M11 A2976 RMK A01 T02211109  RH  010%=      5-min Rain = 0
KARS 092355Z 02007KT 22/M11 A2976 RMK A01 T02191109  RH  010%=      5-min Rain = 0
KARS 100000Z 02007KT 22/M11 A2976 RMK A01 T02171109  RH  010%=      5-min Rain = 0
KARS 100005Z 00007KT 21/M11 A2976 RMK A01 T02141106  RH  011%=      5-min Rain = 0
KARS 100010Z 36006KT 21/M10 A2977 RMK A01 T02091102  RH  011%=      5-min Rain = 0
KARS 100015Z 36006KT 20/M10 A2977 RMK A01 T02041101  RH  012%=      5-min Rain = 0
KARS 100020Z 36007KT 20/M10 A2976 RMK A01 T01991100  RH  012%=      5-min Rain = 0
KARS 100025Z 01008KT 19/M10 A2976 RMK A01 T01941101  RH  013%=      5-min Rain = 0
KARS 100030Z 01011KT 19/M10 A2977 RMK A01 T01911103  RH  013%=      5-min Rain = 0
KARS 100035Z 02011KT 20/M11 A2977 RMK A01 T01951109  RH  012%=      5-min Rain = 0
KARS 100040Z 03010KT 20/M11 A2977 RMK A01 T01961109  RH  012%=      5-min Rain = 0
KARS 100045Z 03008KT 19/M11 A2977 RMK A01 T01911108  RH  012%=      5-min Rain = 0
KARS 100050Z 03008KT 18/M11 A2977 RMK A01 T01841107  RH  013%=      5-min Rain = 0
KARS 100055Z 04008KT 18/M11 A2977 RMK A01 T01781107  RH  013%=      5-min Rain = 0
KARS 100100Z 04008KT 17/M11 A2978 RMK A01 T01731107  RH  014%=      5-min Rain = 0
KARS 100105Z 03008KT 17/M11 A2978 RMK A01 T01701108  RH  014%=      5-min Rain = 0
KARS 100110Z 01009KT 16/M11 A2978 RMK A01 T01641110  RH  014%=      5-min Rain = 0
KARS 100115Z 00008KT 16/M11 A2979 RMK A01 T01561107  RH  015%=      5-min Rain = 0
KARS 100120Z 01008KT 15/M11 A2979 RMK A01 T01501106  RH  016%=      5-min Rain = 0
KARS 100125Z 02009KT 15/M11 A2979 RMK A01 T01501107  RH  016%=      5-min Rain = 0
KARS 100130Z 02009KT 15/M11 A2979 RMK A01 T01481107  RH  016%=      5-min Rain = 0
KARS 100135Z 02009KT 14/M11 A2979 RMK A01 T01441108  RH  016%=      5-min Rain = 0
KARS 100140Z 02008KT 14/M11 A2979 RMK A01 T01391107  RH  017%=      5-min Rain = 0
KARS 100145Z 01008KT 13/M11 A298 RMK A01 T01331105  RH  018%=      5-min Rain = 0
KARS 100150Z 01007KT 13/M10 A298 RMK A01 T01281102  RH  019%=      5-min Rain = 0
KARS 100155Z 00006KT 13/M10 A298 RMK A01 T01261099  RH  020%=      5-min Rain = 0
KARS 100200Z 00006KT 12/M10 A2981 RMK A01 T01231098  RH  020%=      5-min Rain = 0
KARS 100205Z 00007KT 12/M10 A2981 RMK A01 T01231100  RH  020%=      5-min Rain = 0
KARS 100210Z 00006KT 12/M10 A2981 RMK A01 T01231100  RH  020%=      5-min Rain = 0
KARS 100215Z 35007KT 12/M10 A2981 RMK A01 T01201098  RH  021%=      5-min Rain = 0
KARS 100220Z 35007KT 12/M10 A2981 RMK A01 T01161095  RH  022%=      5-min Rain = 0
KARS 100225Z 36007KT 11/M10 A2982 RMK A01 T01141096  RH  022%=      5-min Rain = 0
KARS 100230Z 00007KT 11/M10 A2982 RMK A01 T01131095  RH  022%=      5-min Rain = 0
KARS 100235Z 36007KT 11/M09 A2982 RMK A01 T01111094  RH  023%=      5-min Rain = 0
KARS 100240Z 00007KT 11/M09 A2982 RMK A01 T01081093  RH  023%=      5-min Rain = 0
KARS 100245Z 01007KT 11/M10 A2982 RMK A01 T01061095  RH  023%=      5-min Rain = 0
KARS 100250Z 02007KT 11/M10 A2982 RMK A01 T01061095  RH  023%=      5-min Rain = 0
KARS 100255Z 02006KT 11/M10 A2982 RMK A01 T01081096  RH  023%=      5-min Rain = 0
KARS 100300Z 03006KT 11/M10 A2982 RMK A01 T01091098  RH  022%=      5-min Rain = 0
KARS 100305Z 02006KT 11/M10 A2982 RMK A01 T01081098  RH  022%=      5-min Rain = 0
KARS 100310Z 02005KT 10/M10 A2983 RMK A01 T01011100  RH  023%=      5-min Rain = 0
KARS 100315Z 01005KT 10/M10 A2983 RMK A01 T00961099  RH  024%=      5-min Rain = 0
KARS 100320Z 02006KT 09/M10 A2983 RMK A01 T00941099  RH  024%=      5-min Rain = 0
KARS 100325Z 03005KT 10/M10 A2983 RMK A01 T00971099  RH  024%=      5-min Rain = 0
KARS 100330Z 03005KT 10/M10 A2984 RMK A01 T00981099  RH  024%=      5-min Rain = 0
KARS 100335Z 03006KT 10/M10 A2984 RMK A01 T00991100  RH  023%=      5-min Rain = 0
KARS 100340Z 02006KT 10/M10 A2984 RMK A01 T00971099  RH  024%=      5-min Rain = 0
KARS 100345Z 03005KT 10/M10 A2983 RMK A01 T00951097  RH  025%=      5-min Rain = 0
KARS 100350Z 03005KT 09/M10 A2983 RMK A01 T00931097  RH  025%=      5-min Rain = 0
KARS 100355Z 03005KT 09/M10 A2983 RMK A01 T00921098  RH  025%=      5-min Rain = 0
KARS 100400Z 03005KT 09/M10 A2983 RMK A01 T00901099  RH  025%=      5-min Rain = 0
KARS 100405Z 03006KT 09/M10 A2983 RMK A01 T00871099  RH  026%=      5-min Rain = 0
KARS 100410Z 04006KT 08/M10 A2983 RMK A01 T00831100  RH  026%=      5-min Rain = 0
KARS 100415Z 05006KT 08/M10 A2982 RMK A01 T00841101  RH  026%=      5-min Rain = 0
KARS 100420Z 05006KT 09/M10 A2982 RMK A01 T00851102  RH  025%=      5-min Rain = 0
KARS 100425Z 06006KT 09/M10 A2982 RMK A01 T00861104  RH  025%=      5-min Rain = 0
KARS 100430Z 06006KT 08/M10 A2982 RMK A01 T00831104  RH  025%=      5-min Rain = 0
KARS 100435Z 05006KT 08/M10 A2983 RMK A01 T00811103  RH  026%=      5-min Rain = 0
KARS 100440Z 05005KT 08/M10 A2983 RMK A01 T00761101  RH  027%=      5-min Rain = 0
KARS 100445Z 06006KT 08/M10 A2983 RMK A01 T00761104  RH  026%=      5-min Rain = 0
KARS 100450Z 06005KT 08/M10 A2984 RMK A01 T00771104  RH  026%=      5-min Rain = 0
KARS 100455Z 06005KT 07/M10 A2983 RMK A01 T00731104  RH  027%=      5-min Rain = 0
KARS 100500Z 07007KT 08/M10 A2983 RMK A01 T00751104  RH  027%=      5-min Rain = 0
KARS 100505Z 07007KT 08/M10 A2983 RMK A01 T00751103  RH  027%=      5-min Rain = 0
KARS 100510Z 07007KT 07/M10 A2983 RMK A01 T00741103  RH  027%=      5-min Rain = 0
KARS 100515Z 07006KT 07/M10 A2983 RMK A01 T00741104  RH  027%=      5-min Rain = 0
KARS 100520Z 08006KT 07/M11 A2983 RMK A01 T00741106  RH  026%=      5-min Rain = 0
KARS 100525Z 07006KT 08/M11 A2983 RMK A01 T00781107  RH  025%=      5-min Rain = 0
KARS 100530Z 07006KT 08/M11 A2984 RMK A01 T00811107  RH  025%=      5-min Rain = 0
KARS 100535Z 08006KT 08/M11 A2984 RMK A01 T00811106  RH  025%=      5-min Rain = 0
KARS 100540Z 08006KT 08/M11 A2984 RMK A01 T00811105  RH  025%=      5-min Rain = 0
KARS 100545Z 08005KT 08/M11 A2984 RMK A01 T00791107  RH  025%=      5-min Rain = 0
KARS 100550Z 08005KT 08/M11 A2984 RMK A01 T00761108  RH  026%=      5-min Rain = 0
KARS 100555Z 08006KT 08/M10 A2984 RMK A01 T00761101  RH  027%=      5-min Rain = 0

Page generated in 0.0092 seconds.